createdAt,value
2023-05-05T00:18:57.110Z,54.69
2023-05-05T00:49:00.265Z,59.14
2023-05-05T01:19:04.323Z,60.29
2023-05-05T01:49:07.503Z,61.13
2023-05-05T02:19:10.419Z,53.03
2023-05-05T02:49:14.177Z,60.19
2023-05-05T03:19:18.196Z,53.21
2023-05-05T03:49:21.420Z,60.34
2023-05-05T04:19:24.510Z,53.67
2023-05-05T04:49:27.804Z,61.95
2023-05-05T05:19:32.301Z,61.99
2023-05-05T05:49:35.082Z,61.47
2023-05-05T06:19:38.465Z,62.28
2023-05-05T06:49:41.363Z,60.60
2023-05-05T07:19:45.292Z,60.91
2023-05-05T07:49:48.101Z,60.01
2023-05-05T08:19:51.732Z,60.03
2023-05-05T08:49:54.698Z,60.03
2023-05-05T09:19:58.184Z,58.06
2023-05-05T09:50:01.523Z,55.93
2023-05-05T10:20:05.910Z,54.24
2023-05-05T10:50:09.802Z,51.37
2023-05-05T11:20:13.356Z,48.23
2023-05-05T11:50:16.803Z,45.49
2023-05-05T12:20:20.219Z,44.11
2023-05-05T12:50:23.230Z,43.80
2023-05-05T13:20:26.513Z,44.30
2023-05-05T13:50:29.406Z,44.21
2023-05-05T14:20:32.895Z,45.64
2023-05-05T14:50:35.758Z,46.24
2023-05-05T15:20:39.151Z,45.92
2023-05-05T15:50:42.066Z,46.16
2023-05-05T16:20:45.944Z,47.47
2023-05-05T16:50:49.042Z,48.46
2023-05-05T17:20:52.709Z,49.65
2023-05-05T17:50:55.582Z,50.53
2023-05-05T18:20:59.157Z,51.32
2023-05-05T18:51:02.029Z,52.21
2023-05-05T19:21:05.736Z,53.63
2023-05-05T19:51:08.740Z,54.83
2023-05-05T20:21:11.721Z,55.39
2023-05-05T20:51:14.734Z,56.48
2023-05-05T21:21:17.737Z,56.84
2023-05-05T21:51:21.266Z,57.47
2023-05-05T22:21:24.212Z,58.13
2023-05-05T22:51:27.692Z,59.73
2023-05-05T23:21:33.987Z,60.85
2023-05-05T23:51:39.801Z,61.62
